X  Zatvori METAR podaci zračne luke     LDPL Pula Airport
Temperatura
7°C Temperatura
-2°C Točka rosišta
53% Vlaga



Vjetar
5 KM/S
3 MPS
1 M/S
3 Čvorovi



260°
Zapad
Trenutna situacija

Djelimično oblačno Djelimično oblačno
Tlak zraka 1013.92 (hPa) - 29.94 (inHg)
Vidljivost 6.2 (milje) - 10 (km)
Zračna luka
Kôd zračne luke LDPL

Lokacija: Pula Airport
Udaljenost: 39 (km)

Metar:
LDPL 171200Z 26003KT 220V300 9999 FEW035 BKN045 07/M02 Q1014 NOSIG

Vrijeme: 17-01-2021 13:00 CET